createdAt,value
2018-07-19T00:02:37.824Z,14.30
2018-07-19T00:05:42.052Z,14.20
2018-07-19T00:08:46.250Z,14.20
2018-07-19T00:11:50.474Z,14.20
2018-07-19T00:14:54.685Z,14.10
2018-07-19T00:17:59.019Z,14.10
2018-07-19T00:21:03.235Z,14.10
2018-07-19T00:24:07.704Z,14.00
2018-07-19T00:27:11.930Z,14.00
2018-07-19T00:30:16.140Z,14.00
2018-07-19T00:33:20.553Z,14.00
2018-07-19T00:36:24.745Z,14.00
2018-07-19T00:39:28.981Z,14.00
2018-07-19T00:42:33.196Z,14.00
2018-07-19T00:45:37.440Z,14.00
2018-07-19T00:48:41.668Z,14.00
2018-07-19T00:51:45.908Z,14.00
2018-07-19T00:54:50.452Z,14.00
2018-07-19T00:57:54.701Z,14.00
2018-07-19T01:00:58.912Z,14.00
2018-07-19T01:04:03.174Z,13.90
2018-07-19T01:07:07.385Z,13.90
2018-07-19T01:10:11.662Z,13.90
2018-07-19T01:13:15.877Z,13.90
2018-07-19T01:16:20.148Z,13.80
2018-07-19T01:19:24.372Z,13.70
2018-07-19T01:22:28.626Z,13.70
2018-07-19T01:25:32.841Z,13.70
2018-07-19T01:28:37.053Z,13.70
2018-07-19T01:31:41.285Z,13.60
2018-07-19T01:34:45.508Z,13.60
2018-07-19T01:37:49.729Z,13.50
2018-07-19T01:40:53.956Z,13.50
2018-07-19T01:43:58.184Z,13.50
2018-07-19T01:47:02.401Z,13.50
2018-07-19T01:50:08.041Z,13.50
2018-07-19T01:53:12.288Z,13.50
2018-07-19T01:56:16.515Z,13.50
2018-07-19T01:59:20.709Z,13.50
2018-07-19T02:02:24.929Z,13.50
2018-07-19T02:05:29.132Z,13.40
2018-07-19T02:08:33.345Z,13.40
2018-07-19T02:11:37.596Z,13.30
2018-07-19T02:14:41.823Z,13.30
2018-07-19T02:17:46.065Z,13.30
2018-07-19T02:20:50.310Z,13.30
2018-07-19T02:23:54.526Z,13.30
2018-07-19T02:26:58.752Z,13.30
2018-07-19T02:30:02.986Z,13.20
2018-07-19T02:33:07.248Z,13.20
2018-07-19T02:36:11.476Z,13.20
2018-07-19T02:39:16.017Z,13.10
2018-07-19T02:42:20.257Z,13.10
2018-07-19T02:45:24.496Z,13.10
2018-07-19T02:48:28.717Z,13.00
2018-07-19T02:51:32.960Z,13.00
2018-07-19T02:54:37.176Z,13.00
2018-07-19T02:57:41.435Z,13.00
2018-07-19T03:00:45.741Z,12.90
2018-07-19T03:03:49.977Z,12.80
2018-07-19T03:06:54.213Z,12.80
2018-07-19T03:09:58.428Z,12.80
2018-07-19T03:13:02.653Z,12.70
2018-07-19T03:16:07.025Z,12.70
2018-07-19T03:19:11.223Z,12.70
2018-07-19T03:22:15.449Z,12.70
2018-07-19T03:25:19.653Z,12.70
2018-07-19T03:28:23.892Z,12.70
2018-07-19T03:31:28.105Z,12.70
2018-07-19T03:34:32.323Z,12.70
2018-07-19T03:37:36.561Z,12.70
2018-07-19T03:40:40.817Z,12.70
2018-07-19T03:43:45.042Z,12.70
2018-07-19T03:46:49.240Z,12.70
2018-07-19T03:49:53.444Z,12.70
2018-07-19T03:52:57.657Z,12.60
2018-07-19T03:56:01.876Z,12.60
2018-07-19T03:59:06.084Z,12.60
2018-07-19T04:02:10.305Z,12.70
2018-07-19T04:05:14.512Z,12.60
2018-07-19T04:08:18.745Z,12.70
2018-07-19T04:11:22.998Z,12.60
2018-07-19T04:14:27.222Z,12.70
2018-07-19T04:17:31.425Z,12.70
2018-07-19T04:20:35.679Z,12.70
2018-07-19T04:23:39.876Z,12.80
2018-07-19T04:26:44.092Z,12.80
2018-07-19T04:29:48.301Z,12.80
2018-07-19T04:32:52.549Z,12.90
2018-07-19T04:35:56.794Z,12.90
2018-07-19T04:39:01.044Z,12.90
2018-07-19T04:42:05.266Z,13.00
2018-07-19T04:45:09.507Z,13.00
2018-07-19T04:48:13.742Z,13.00
2018-07-19T04:51:18.008Z,13.00
2018-07-19T04:54:22.287Z,13.00
2018-07-19T04:57:26.542Z,13.00
2018-07-19T05:00:30.773Z,12.90
2018-07-19T05:03:35.009Z,12.80
2018-07-19T05:06:39.255Z,12.90
2018-07-19T05:09:43.484Z,12.90
2018-07-19T05:12:47.729Z,13.00
2018-07-19T05:15:51.953Z,13.10
2018-07-19T05:18:56.208Z,13.10
2018-07-19T05:22:00.440Z,13.20
2018-07-19T05:25:04.664Z,13.20
2018-07-19T05:28:08.898Z,13.30
2018-07-19T05:31:13.132Z,13.40
2018-07-19T05:34:17.368Z,13.50
2018-07-19T05:37:21.589Z,13.60
2018-07-19T05:40:25.834Z,13.70
2018-07-19T05:43:30.037Z,13.80
2018-07-19T05:46:34.276Z,13.90
2018-07-19T05:49:38.509Z,14.10
2018-07-19T05:52:42.765Z,14.20
2018-07-19T05:55:46.987Z,14.30
2018-07-19T05:58:51.217Z,14.40
2018-07-19T06:01:55.444Z,14.60
2018-07-19T06:04:59.669Z,14.70
2018-07-19T06:08:03.912Z,14.80
2018-07-19T06:11:08.248Z,15.00
2018-07-19T06:14:12.505Z,15.20
2018-07-19T06:17:16.745Z,15.30
2018-07-19T06:20:20.977Z,15.50
2018-07-19T06:23:25.228Z,15.70
2018-07-19T06:26:29.458Z,15.80
2018-07-19T06:29:33.680Z,15.90
2018-07-19T06:32:37.941Z,16.00
2018-07-19T06:35:42.169Z,16.20
2018-07-19T06:38:46.400Z,16.30
2018-07-19T06:41:50.637Z,16.50
2018-07-19T06:44:54.869Z,16.60
2018-07-19T06:47:59.084Z,16.70
2018-07-19T06:51:03.313Z,16.90
2018-07-19T06:54:07.529Z,17.10
2018-07-19T06:57:11.785Z,17.30
2018-07-19T07:00:16.025Z,17.50
2018-07-19T07:03:20.296Z,17.50
2018-07-19T07:06:24.501Z,17.70
2018-07-19T07:09:28.737Z,17.90
2018-07-19T07:12:33.008Z,18.00
2018-07-19T07:15:37.216Z,18.20
2018-07-19T07:18:41.417Z,18.30
2018-07-19T07:21:45.680Z,18.50
2018-07-19T07:24:49.962Z,18.70
2018-07-19T07:27:54.203Z,18.80
2018-07-19T07:30:58.404Z,19.00
2018-07-19T07:34:03.395Z,19.10
2018-07-19T07:37:07.645Z,19.20
2018-07-19T07:40:11.872Z,19.30
2018-07-19T07:43:16.125Z,19.50
2018-07-19T07:46:20.356Z,19.60
2018-07-19T07:49:24.597Z,19.80
2018-07-19T07:52:28.812Z,19.90
2018-07-19T07:55:33.048Z,20.10
2018-07-19T07:58:37.323Z,20.20
2018-07-19T08:01:41.613Z,20.30
2018-07-19T08:04:45.874Z,20.40
2018-07-19T08:07:50.080Z,20.40
2018-07-19T08:10:54.331Z,20.20
2018-07-19T08:13:58.568Z,20.20
2018-07-19T08:17:02.805Z,20.30
2018-07-19T08:20:07.096Z,20.50
2018-07-19T08:23:11.350Z,20.80
2018-07-19T08:26:15.552Z,20.80
2018-07-19T08:29:19.788Z,21.00
2018-07-19T08:32:24.067Z,21.10
2018-07-19T08:35:28.284Z,21.20
2018-07-19T08:38:32.488Z,21.40
2018-07-19T08:41:36.868Z,21.60
2018-07-19T08:44:41.126Z,21.50
2018-07-19T08:47:45.356Z,21.20
2018-07-19T08:50:49.647Z,21.20
2018-07-19T08:53:53.892Z,21.30
2018-07-19T08:56:58.134Z,21.50
2018-07-19T09:00:02.361Z,21.70
2018-07-19T09:03:06.581Z,21.90
2018-07-19T09:06:10.823Z,22.10
2018-07-19T09:09:15.037Z,22.10
2018-07-19T09:12:19.244Z,22.10
2018-07-19T09:15:23.481Z,22.20
2018-07-19T09:18:27.696Z,22.30
2018-07-19T09:21:31.951Z,22.30
2018-07-19T09:24:36.288Z,22.40
2018-07-19T09:27:40.648Z,22.40
2018-07-19T09:30:44.865Z,22.60
2018-07-19T09:33:49.096Z,22.80
2018-07-19T09:36:53.328Z,22.70
2018-07-19T09:39:57.557Z,22.70
2018-07-19T09:43:01.798Z,22.70
2018-07-19T09:46:06.049Z,22.80
2018-07-19T09:49:10.301Z,23.00
2018-07-19T09:52:14.524Z,22.90
2018-07-19T09:55:18.865Z,22.90
2018-07-19T09:58:23.202Z,22.90
2018-07-19T10:01:27.434Z,22.80
2018-07-19T10:04:31.704Z,22.80
2018-07-19T10:07:35.965Z,22.90
2018-07-19T10:10:40.220Z,23.00
2018-07-19T10:13:44.563Z,23.10
2018-07-19T10:16:48.798Z,23.20
2018-07-19T10:19:53.009Z,23.40
2018-07-19T10:22:57.249Z,23.30
2018-07-19T10:26:01.489Z,23.30
2018-07-19T10:29:05.736Z,23.30
2018-07-19T10:32:09.993Z,23.30
2018-07-19T10:35:14.201Z,23.30
2018-07-19T10:38:18.414Z,23.30
2018-07-19T10:41:22.624Z,23.40
2018-07-19T10:44:26.922Z,23.50
2018-07-19T10:50:35.117Z,23.40
2018-07-19T10:53:39.360Z,23.40
2018-07-19T10:56:43.566Z,23.50
2018-07-19T10:59:47.856Z,23.50
2018-07-19T11:02:52.140Z,23.60
2018-07-19T11:05:56.258Z,23.70
2018-07-19T11:09:00.464Z,23.70
2018-07-19T11:12:04.705Z,23.80
2018-07-19T11:15:08.920Z,23.80
2018-07-19T11:18:13.113Z,23.70
2018-07-19T11:21:17.337Z,23.50
2018-07-19T11:24:21.537Z,23.60
2018-07-19T11:27:25.749Z,23.70
2018-07-19T11:30:29.945Z,23.50
2018-07-19T11:33:34.176Z,23.60
2018-07-19T11:36:38.670Z,23.60
2018-07-19T11:39:42.913Z,23.70
2018-07-19T11:42:47.145Z,23.80
2018-07-19T11:45:51.364Z,23.80
2018-07-19T11:48:55.574Z,23.80
2018-07-19T11:51:59.784Z,23.70
2018-07-19T11:55:04.012Z,23.70
2018-07-19T11:58:08.214Z,23.60
2018-07-19T12:01:12.544Z,23.70
2018-07-19T12:04:18.623Z,23.80
2018-07-19T12:07:23.037Z,23.90
2018-07-19T12:10:27.488Z,23.90
2018-07-19T12:13:32.169Z,23.90
2018-07-19T12:16:36.358Z,23.70
2018-07-19T12:19:40.597Z,23.60
2018-07-19T12:22:44.802Z,23.60
2018-07-19T12:25:49.036Z,23.70
2018-07-19T12:28:53.900Z,23.70
2018-07-19T12:31:58.120Z,23.90
2018-07-19T12:35:02.349Z,23.90
2018-07-19T12:38:06.565Z,23.90
2018-07-19T12:41:10.849Z,23.90
2018-07-19T12:44:15.080Z,24.00
2018-07-19T12:47:19.293Z,24.20
2018-07-19T12:50:23.607Z,24.30
2018-07-19T12:53:27.887Z,24.30
2018-07-19T12:56:32.089Z,24.00
2018-07-19T12:59:36.460Z,23.80
2018-07-19T13:02:40.690Z,23.70
2018-07-19T13:05:44.939Z,23.70
2018-07-19T13:08:49.180Z,23.90
2018-07-19T13:11:53.650Z,24.00
2018-07-19T13:14:57.877Z,23.90
2018-07-19T13:18:02.112Z,24.00
2018-07-19T13:21:06.365Z,24.10
2018-07-19T13:24:10.728Z,24.10
2018-07-19T13:27:14.989Z,24.00
2018-07-19T13:30:19.227Z,24.00
2018-07-19T13:33:23.444Z,24.10
2018-07-19T13:36:27.725Z,24.00
2018-07-19T13:39:31.956Z,24.10
2018-07-19T13:42:36.243Z,24.20
2018-07-19T13:45:40.452Z,24.30
2018-07-19T13:48:44.689Z,24.30
2018-07-19T13:51:48.956Z,24.40
2018-07-19T13:54:53.189Z,24.30
2018-07-19T13:57:57.429Z,24.40
2018-07-19T14:01:01.725Z,24.40
2018-07-19T14:04:06.068Z,24.40
2018-07-19T14:07:10.309Z,24.50
2018-07-19T14:10:14.524Z,24.60
2018-07-19T14:13:18.841Z,24.60
2018-07-19T14:16:23.057Z,24.60
2018-07-19T14:19:27.284Z,24.70
2018-07-19T14:22:31.541Z,24.60
2018-07-19T14:25:35.830Z,24.70
2018-07-19T14:28:40.024Z,24.80
2018-07-19T14:31:44.216Z,24.70
2018-07-19T14:34:48.446Z,24.50
2018-07-19T14:37:53.208Z,24.50
2018-07-19T14:40:57.451Z,24.60
2018-07-19T14:44:01.659Z,24.50
2018-07-19T14:47:05.920Z,24.50
2018-07-19T14:50:10.164Z,24.60
2018-07-19T14:53:14.404Z,24.80
2018-07-19T14:56:18.633Z,25.00
2018-07-19T14:59:23.097Z,25.10
2018-07-19T15:02:27.340Z,25.10
2018-07-19T15:05:31.631Z,25.30
2018-07-19T15:08:36.001Z,25.40
2018-07-19T15:11:40.323Z,25.50
2018-07-19T15:14:44.537Z,25.70
2018-07-19T15:17:48.777Z,26.00
2018-07-19T15:20:53.017Z,26.10
2018-07-19T15:23:57.265Z,26.50
2018-07-19T15:27:01.476Z,26.70
2018-07-19T15:30:06.326Z,26.70
2018-07-19T15:33:10.601Z,26.80
2018-07-19T15:36:14.805Z,26.70
2018-07-19T15:39:19.020Z,26.90
2018-07-19T15:42:23.253Z,27.00
2018-07-19T15:45:27.504Z,27.00
2018-07-19T15:51:35.724Z,26.20
2018-07-19T15:54:39.964Z,26.00
2018-07-19T15:57:44.212Z,26.30
2018-07-19T16:00:48.468Z,26.50
2018-07-19T16:03:52.683Z,26.60
2018-07-19T16:06:56.955Z,26.40
2018-07-19T16:10:02.506Z,26.30
2018-07-19T16:13:06.797Z,26.10
2018-07-19T16:16:11.021Z,25.90
2018-07-19T16:19:15.565Z,25.80
2018-07-19T16:22:19.801Z,25.40
2018-07-19T16:25:24.030Z,25.20
2018-07-19T16:28:28.298Z,24.90
2018-07-19T16:31:32.520Z,24.50
2018-07-19T16:34:36.727Z,24.20
2018-07-19T16:37:40.977Z,23.90
2018-07-19T16:40:45.517Z,23.50
2018-07-19T16:43:49.721Z,23.20
2018-07-19T16:46:53.939Z,23.00
2018-07-19T16:49:58.172Z,22.90
2018-07-19T16:53:02.414Z,22.70
2018-07-19T16:56:06.818Z,22.60
2018-07-19T16:59:11.028Z,22.40
2018-07-19T17:02:15.232Z,22.30
2018-07-19T17:05:19.523Z,22.20
2018-07-19T17:08:23.744Z,22.10
2018-07-19T17:11:27.969Z,22.00
2018-07-19T17:14:32.185Z,21.90
2018-07-19T17:17:36.446Z,21.80
2018-07-19T17:20:40.664Z,21.80
2018-07-19T17:23:45.032Z,21.70
2018-07-19T17:26:49.289Z,21.60
2018-07-19T17:29:53.492Z,21.50
2018-07-19T17:32:57.717Z,21.40
2018-07-19T17:36:01.944Z,21.30
2018-07-19T17:39:10.061Z,21.20
2018-07-19T17:42:14.268Z,21.00
2018-07-19T17:45:18.504Z,20.90
2018-07-19T17:48:22.717Z,20.90
2018-07-19T17:51:26.964Z,20.90
2018-07-19T17:54:31.168Z,20.90
2018-07-19T17:57:35.398Z,20.90
2018-07-19T18:00:39.589Z,20.90
2018-07-19T18:03:43.807Z,20.80
2018-07-19T18:06:48.113Z,20.70
2018-07-19T18:09:52.361Z,20.60
2018-07-19T18:12:56.548Z,20.60
2018-07-19T18:16:00.794Z,20.50
2018-07-19T18:19:05.185Z,20.40
2018-07-19T18:22:09.448Z,20.30
2018-07-19T18:25:13.653Z,20.20
2018-07-19T18:28:17.931Z,20.20
2018-07-19T18:31:22.191Z,20.20
2018-07-19T18:34:26.428Z,20.10
2018-07-19T18:37:30.645Z,20.00
2018-07-19T18:40:34.937Z,19.90
2018-07-19T18:43:39.163Z,19.90
2018-07-19T18:46:43.393Z,19.80
2018-07-19T18:49:47.637Z,19.80
2018-07-19T18:52:51.901Z,19.60
2018-07-19T18:55:56.145Z,19.60
2018-07-19T18:59:00.344Z,19.50
2018-07-19T19:02:04.610Z,19.40
2018-07-19T19:05:08.901Z,19.30
2018-07-19T19:08:13.146Z,19.20
2018-07-19T19:11:17.496Z,19.10
2018-07-19T19:14:21.709Z,19.00
2018-07-19T19:17:25.940Z,19.00
2018-07-19T19:20:30.178Z,18.90
2018-07-19T19:23:34.408Z,18.80
2018-07-19T19:26:38.608Z,18.60
2018-07-19T19:29:42.835Z,18.40
2018-07-19T19:32:47.020Z,18.40
2018-07-19T19:35:51.353Z,18.30
2018-07-19T19:38:55.550Z,18.20
2018-07-19T19:41:59.805Z,18.10
2018-07-19T19:45:04.048Z,18.00
2018-07-19T19:48:08.260Z,17.90
2018-07-19T19:51:12.501Z,17.80
2018-07-19T19:54:16.808Z,17.80
2018-07-19T19:57:20.985Z,17.70
2018-07-19T20:00:25.224Z,17.60
2018-07-19T20:03:29.511Z,17.50
2018-07-19T20:06:33.789Z,17.40
2018-07-19T20:09:38.044Z,17.30
2018-07-19T20:12:42.310Z,17.20
2018-07-19T20:15:46.552Z,17.10
2018-07-19T20:18:50.808Z,17.10
2018-07-19T20:21:55.049Z,17.00
2018-07-19T20:24:59.284Z,16.90
2018-07-19T20:28:03.500Z,16.80
2018-07-19T20:31:07.861Z,16.70
2018-07-19T20:34:12.093Z,16.70
2018-07-19T20:37:16.351Z,16.60
2018-07-19T20:40:20.568Z,16.60
2018-07-19T20:43:24.833Z,16.50
2018-07-19T20:46:29.057Z,16.50
2018-07-19T20:49:33.301Z,16.40
2018-07-19T20:52:37.546Z,16.30
2018-07-19T20:55:41.788Z,16.30
2018-07-19T20:58:46.002Z,16.30
2018-07-19T21:04:54.272Z,16.20
2018-07-19T21:07:58.540Z,16.20
2018-07-19T21:11:02.764Z,16.10
2018-07-19T21:14:07.097Z,16.00
2018-07-19T21:17:11.596Z,16.00
2018-07-19T21:20:15.829Z,15.90
2018-07-19T21:23:20.054Z,15.80
2018-07-19T21:26:24.285Z,15.80
2018-07-19T21:29:28.628Z,15.80
2018-07-19T21:32:32.884Z,15.70
2018-07-19T21:35:37.124Z,15.60
2018-07-19T21:38:41.353Z,15.60
2018-07-19T21:41:45.557Z,15.50
2018-07-19T21:44:49.792Z,15.50
2018-07-19T21:47:54.052Z,15.40
2018-07-19T21:50:58.297Z,15.30
2018-07-19T21:54:02.491Z,15.30
2018-07-19T21:57:06.728Z,15.20
2018-07-19T22:00:10.966Z,15.20
2018-07-19T22:03:15.219Z,15.10
2018-07-19T22:06:19.469Z,15.10
2018-07-19T22:09:23.962Z,15.00
2018-07-19T22:12:28.205Z,15.00
2018-07-19T22:15:32.485Z,15.00
2018-07-19T22:18:36.736Z,14.90
2018-07-19T22:21:40.954Z,14.90
2018-07-19T22:24:45.220Z,14.80
2018-07-19T22:27:49.472Z,14.80
2018-07-19T22:30:53.706Z,14.70
2018-07-19T22:33:57.961Z,14.60
2018-07-19T22:37:02.213Z,14.50
2018-07-19T22:40:06.513Z,14.60
2018-07-19T22:43:10.732Z,14.50
2018-07-19T22:46:14.977Z,14.50
2018-07-19T22:49:19.177Z,14.50
2018-07-19T22:52:23.440Z,14.40
2018-07-19T22:55:27.649Z,14.40
2018-07-19T22:58:31.860Z,14.40
2018-07-19T23:01:36.069Z,14.40
2018-07-19T23:04:40.308Z,14.30
2018-07-19T23:07:44.534Z,14.20
2018-07-19T23:10:48.749Z,14.20
2018-07-19T23:13:52.977Z,14.20
2018-07-19T23:16:57.178Z,14.10
2018-07-19T23:20:01.377Z,14.10
2018-07-19T23:23:05.617Z,14.10
2018-07-19T23:26:10.636Z,14.10
2018-07-19T23:29:14.877Z,14.10
2018-07-19T23:32:19.274Z,14.10
2018-07-19T23:35:25.877Z,14.10
2018-07-19T23:38:38.689Z,14.00
2018-07-19T23:41:55.596Z,13.90
2018-07-19T23:49:10.348Z,13.80
2018-07-19T23:52:14.548Z,13.80
2018-07-19T23:55:18.770Z,13.60
2018-07-19T23:58:22.984Z,13.60
